sensor_id;sensor_type;location;lat;lon;timestamp;P1;durP1;ratioP1;P2;durP2;ratioP2
40541;SDS011;49288;52.194;5.676;2024-03-23T00:55:21;29.83;;;8.70;;
40541;SDS011;49288;52.194;5.676;2024-03-23T01:00:23;34.22;;;8.57;;
40541;SDS011;49288;52.194;5.676;2024-03-23T01:05:25;37.25;;;10.63;;
40541;SDS011;49288;52.194;5.676;2024-03-23T01:10:26;27.33;;;8.60;;
40541;SDS011;49288;52.194;5.676;2024-03-23T01:15:28;23.55;;;7.97;;
40541;SDS011;49288;52.194;5.676;2024-03-23T01:20:30;18.02;;;7.60;;
40541;SDS011;49288;52.194;5.676;2024-03-23T01:25:32;18.00;;;6.82;;
40541;SDS011;49288;52.194;5.676;2024-03-23T01:30:34;17.00;;;7.22;;
40541;SDS011;49288;52.194;5.676;2024-03-23T01:35:36;25.45;;;7.95;;
40541;SDS011;49288;52.194;5.676;2024-03-23T01:40:38;22.92;;;9.20;;
40541;SDS011;49288;52.194;5.676;2024-03-23T01:45:39;22.50;;;8.65;;
40541;SDS011;49288;52.194;5.676;2024-03-23T01:50:42;29.67;;;9.75;;
40541;SDS011;49288;52.194;5.676;2024-03-23T01:56:02;25.55;;;9.10;;
40541;SDS011;49288;52.194;5.676;2024-03-23T02:01:06;20.80;;;8.60;;
40541;SDS011;49288;52.194;5.676;2024-03-23T02:06:08;26.55;;;8.63;;
40541;SDS011;49288;52.194;5.676;2024-03-23T02:11:10;23.58;;;7.60;;
40541;SDS011;49288;52.194;5.676;2024-03-23T02:16:13;21.00;;;8.00;;
40541;SDS011;49288;52.194;5.676;2024-03-23T02:21:15;19.90;;;7.90;;
40541;SDS011;49288;52.194;5.676;2024-03-23T02:26:18;15.75;;;7.18;;
40541;SDS011;49288;52.194;5.676;2024-03-23T02:31:38;21.30;;;7.93;;
40541;SDS011;49288;52.194;5.676;2024-03-23T02:36:42;24.83;;;8.35;;
40541;SDS011;49288;52.194;5.676;2024-03-23T02:41:45;19.02;;;6.95;;
40541;SDS011;49288;52.194;5.676;2024-03-23T02:46:48;21.00;;;7.72;;
40541;SDS011;49288;52.194;5.676;2024-03-23T02:51:50;20.70;;;7.78;;
40541;SDS011;49288;52.194;5.676;2024-03-23T02:56:53;24.15;;;9.60;;
40541;SDS011;49288;52.194;5.676;2024-03-23T03:01:54;29.35;;;9.07;;
40541;SDS011;49288;52.194;5.676;2024-03-23T03:07:15;24.80;;;9.40;;
40541;SDS011;49288;52.194;5.676;2024-03-23T03:12:18;23.55;;;8.55;;
40541;SDS011;49288;52.194;5.676;2024-03-23T03:17:20;30.27;;;9.90;;
40541;SDS011;49288;52.194;5.676;2024-03-23T03:22:22;25.13;;;10.55;;
40541;SDS011;49288;52.194;5.676;2024-03-23T03:27:26;26.25;;;8.43;;
40541;SDS011;49288;52.194;5.676;2024-03-23T03:32:32;22.10;;;8.95;;
40541;SDS011;49288;52.194;5.676;2024-03-23T03:37:34;25.25;;;8.70;;
40541;SDS011;49288;52.194;5.676;2024-03-23T03:42:36;22.70;;;9.68;;
40541;SDS011;49288;52.194;5.676;2024-03-23T03:47:38;28.00;;;10.13;;
40541;SDS011;49288;52.194;5.676;2024-03-23T03:52:39;27.58;;;9.77;;
40541;SDS011;49288;52.194;5.676;2024-03-23T03:57:41;24.27;;;9.38;;
40541;SDS011;49288;52.194;5.676;2024-03-23T04:02:43;27.45;;;9.85;;
40541;SDS011;49288;52.194;5.676;2024-03-23T04:07:50;21.20;;;8.98;;
40541;SDS011;49288;52.194;5.676;2024-03-23T04:12:53;32.13;;;9.60;;
40541;SDS011;49288;52.194;5.676;2024-03-23T04:17:55;29.10;;;9.40;;
40541;SDS011;49288;52.194;5.676;2024-03-23T04:22:58;20.75;;;7.07;;
40541;SDS011;49288;52.194;5.676;2024-03-23T04:28:03;19.83;;;8.25;;
40541;SDS011;49288;52.194;5.676;2024-03-23T04:33:07;23.40;;;9.10;;
40541;SDS011;49288;52.194;5.676;2024-03-23T04:38:28;17.58;;;7.07;;
40541;SDS011;49288;52.194;5.676;2024-03-23T04:43:30;19.27;;;8.75;;
40541;SDS011;49288;52.194;5.676;2024-03-23T04:48:32;23.55;;;8.60;;
40541;SDS011;49288;52.194;5.676;2024-03-23T04:53:35;31.58;;;9.32;;
40541;SDS011;49288;52.194;5.676;2024-03-23T04:58:38;26.40;;;9.07;;
40541;SDS011;49288;52.194;5.676;2024-03-23T05:03:40;20.48;;;7.72;;
40541;SDS011;49288;52.194;5.676;2024-03-23T05:08:44;22.70;;;7.20;;
40541;SDS011;49288;52.194;5.676;2024-03-23T05:13:47;22.73;;;7.13;;
40541;SDS011;49288;52.194;5.676;2024-03-23T05:18:50;19.35;;;7.55;;
40541;SDS011;49288;52.194;5.676;2024-03-23T05:23:53;30.70;;;7.78;;
40541;SDS011;49288;52.194;5.676;2024-03-23T05:28:55;22.83;;;6.97;;
40541;SDS011;49288;52.194;5.676;2024-03-23T05:33:57;21.85;;;7.60;;
40541;SDS011;49288;52.194;5.676;2024-03-23T05:39:00;29.43;;;7.67;;
40541;SDS011;49288;52.194;5.676;2024-03-23T05:44:02;22.83;;;8.02;;
40541;SDS011;49288;52.194;5.676;2024-03-23T05:49:04;21.60;;;5.93;;
40541;SDS011;49288;52.194;5.676;2024-03-23T05:54:06;19.90;;;6.78;;
40541;SDS011;49288;52.194;5.676;2024-03-23T05:59:09;16.65;;;6.22;;
40541;SDS011;49288;52.194;5.676;2024-03-23T06:04:12;13.80;;;5.63;;
40541;SDS011;49288;52.194;5.676;2024-03-23T06:09:14;12.40;;;4.20;;
40541;SDS011;49288;52.194;5.676;2024-03-23T06:14:16;25.33;;;6.05;;
40541;SDS011;49288;52.194;5.676;2024-03-23T06:19:17;28.73;;;5.57;;
40541;SDS011;49288;52.194;5.676;2024-03-23T06:24:21;31.35;;;5.50;;
40541;SDS011;49288;52.194;5.676;2024-03-23T06:29:23;30.63;;;6.88;;
40541;SDS011;49288;52.194;5.676;2024-03-23T06:34:25;27.88;;;5.70;;
40541;SDS011;49288;52.194;5.676;2024-03-23T06:39:28;31.88;;;5.57;;
40541;SDS011;49288;52.194;5.676;2024-03-23T06:44:30;18.90;;;4.85;;
40541;SDS011;49288;52.194;5.676;2024-03-23T06:49:32;26.02;;;4.78;;
40541;SDS011;49288;52.194;5.676;2024-03-23T06:54:34;14.07;;;4.70;;
40541;SDS011;49288;52.194;5.676;2024-03-23T06:59:37;16.85;;;4.20;;
40541;SDS011;49288;52.194;5.676;2024-03-23T07:04:41;24.85;;;4.63;;
40541;SDS011;49288;52.194;5.676;2024-03-23T07:09:42;29.40;;;6.15;;
40541;SDS011;49288;52.194;5.676;2024-03-23T07:14:44;26.83;;;4.85;;
40541;SDS011;49288;52.194;5.676;2024-03-23T07:19:47;27.90;;;5.00;;
40541;SDS011;49288;52.194;5.676;2024-03-23T07:24:50;20.75;;;4.95;;
40541;SDS011;49288;52.194;5.676;2024-03-23T07:30:14;18.80;;;5.57;;
40541;SDS011;49288;52.194;5.676;2024-03-23T07:35:16;24.92;;;5.45;;
40541;SDS011;49288;52.194;5.676;2024-03-23T07:40:19;18.88;;;5.13;;
40541;SDS011;49288;52.194;5.676;2024-03-23T07:45:21;18.45;;;5.80;;
40541;SDS011;49288;52.194;5.676;2024-03-23T07:50:24;25.80;;;7.20;;
40541;SDS011;49288;52.194;5.676;2024-03-23T07:55:26;30.60;;;6.72;;
40541;SDS011;49288;52.194;5.676;2024-03-23T08:00:29;32.13;;;7.55;;
40541;SDS011;49288;52.194;5.676;2024-03-23T08:05:31;16.05;;;3.92;;
40541;SDS011;49288;52.194;5.676;2024-03-23T08:10:33;30.33;;;6.72;;
40541;SDS011;49288;52.194;5.676;2024-03-23T08:15:35;13.18;;;4.80;;
40541;SDS011;49288;52.194;5.676;2024-03-23T08:20:39;28.77;;;6.18;;
40541;SDS011;49288;52.194;5.676;2024-03-23T08:25:40;33.88;;;6.38;;
40541;SDS011;49288;52.194;5.676;2024-03-23T08:30:42;18.15;;;4.35;;
40541;SDS011;49288;52.194;5.676;2024-03-23T08:36:01;24.05;;;4.32;;
40541;SDS011;49288;52.194;5.676;2024-03-23T08:41:05;17.05;;;4.40;;
40541;SDS011;49288;52.194;5.676;2024-03-23T08:46:15;14.25;;;4.50;;
40541;SDS011;49288;52.194;5.676;2024-03-23T08:51:17;16.10;;;3.85;;
40541;SDS011;49288;52.194;5.676;2024-03-23T08:56:18;16.10;;;3.85;;
40541;SDS011;49288;52.194;5.676;2024-03-23T09:01:21;19.35;;;3.70;;
40541;SDS011;49288;52.194;5.676;2024-03-23T09:06:22;14.45;;;2.65;;
40541;SDS011;49288;52.194;5.676;2024-03-23T09:11:42;12.82;;;3.40;;
40541;SDS011;49288;52.194;5.676;2024-03-23T09:16:44;14.15;;;3.13;;
40541;SDS011;49288;52.194;5.676;2024-03-23T09:21:48;25.73;;;3.65;;
40541;SDS011;49288;52.194;5.676;2024-03-23T09:26:51;16.00;;;3.13;;
40541;SDS011;49288;52.194;5.676;2024-03-23T09:31:55;16.92;;;3.13;;
40541;SDS011;49288;52.194;5.676;2024-03-23T09:36:57;16.75;;;3.20;;
40541;SDS011;49288;52.194;5.676;2024-03-23T09:41:59;10.13;;;2.42;;
40541;SDS011;49288;52.194;5.676;2024-03-23T09:47:01;15.30;;;2.70;;
40541;SDS011;49288;52.194;5.676;2024-03-23T09:52:04;10.23;;;2.72;;
40541;SDS011;49288;52.194;5.676;2024-03-23T09:57:07;14.32;;;3.17;;
40541;SDS011;49288;52.194;5.676;2024-03-23T10:02:09;16.60;;;3.22;;
40541;SDS011;49288;52.194;5.676;2024-03-23T10:07:13;7.57;;;2.30;;
40541;SDS011;49288;52.194;5.676;2024-03-23T10:12:18;7.95;;;2.33;;
40541;SDS011;49288;52.194;5.676;2024-03-23T10:17:21;17.48;;;3.25;;
40541;SDS011;49288;52.194;5.676;2024-03-23T10:22:25;16.17;;;3.05;;
40541;SDS011;49288;52.194;5.676;2024-03-23T10:27:27;18.55;;;3.33;;
40541;SDS011;49288;52.194;5.676;2024-03-23T10:32:29;16.35;;;3.80;;
40541;SDS011;49288;52.194;5.676;2024-03-23T10:37:30;11.93;;;2.28;;
40541;SDS011;49288;52.194;5.676;2024-03-23T10:42:32;14.10;;;2.95;;
40541;SDS011;49288;52.194;5.676;2024-03-23T10:47:35;21.17;;;3.60;;
40541;SDS011;49288;52.194;5.676;2024-03-23T10:52:38;14.57;;;3.17;;
40541;SDS011;49288;52.194;5.676;2024-03-23T10:57:53;14.43;;;2.90;;
40541;SDS011;49288;52.194;5.676;2024-03-23T11:02:56;10.27;;;2.03;;
40541;SDS011;49288;52.194;5.676;2024-03-23T11:08:00;19.77;;;3.63;;
40541;SDS011;49288;52.194;5.676;2024-03-23T11:18:41;18.10;;;2.95;;
40541;SDS011;49288;52.194;5.676;2024-03-23T11:23:44;17.10;;;2.80;;
40541;SDS011;49288;52.194;5.676;2024-03-23T11:28:46;12.80;;;2.45;;
40541;SDS011;49288;52.194;5.676;2024-03-23T11:33:48;13.10;;;2.67;;
40541;SDS011;49288;52.194;5.676;2024-03-23T11:38:52;13.70;;;2.70;;
40541;SDS011;49288;52.194;5.676;2024-03-23T11:43:54;17.20;;;3.13;;
40541;SDS011;49288;52.194;5.676;2024-03-23T11:48:56;17.65;;;2.80;;
40541;SDS011;49288;52.194;5.676;2024-03-23T11:54:06;17.98;;;3.05;;
40541;SDS011;49288;52.194;5.676;2024-03-23T11:59:09;15.63;;;2.38;;
40541;SDS011;49288;52.194;5.676;2024-03-23T12:04:12;9.82;;;2.35;;
40541;SDS011;49288;52.194;5.676;2024-03-23T12:09:14;16.20;;;2.60;;
40541;SDS011;49288;52.194;5.676;2024-03-23T12:14:16;13.25;;;2.42;;
40541;SDS011;49288;52.194;5.676;2024-03-23T12:19:18;11.80;;;2.50;;
40541;SDS011;49288;52.194;5.676;2024-03-23T12:24:20;15.02;;;3.60;;
40541;SDS011;49288;52.194;5.676;2024-03-23T12:29:22;7.00;;;1.88;;
40541;SDS011;49288;52.194;5.676;2024-03-23T12:34:23;7.97;;;2.03;;
40541;SDS011;49288;52.194;5.676;2024-03-23T12:39:25;11.32;;;2.28;;
40541;SDS011;49288;52.194;5.676;2024-03-23T12:44:27;9.63;;;1.80;;
40541;SDS011;49288;52.194;5.676;2024-03-23T12:49:29;9.63;;;2.10;;
40541;SDS011;49288;52.194;5.676;2024-03-23T12:54:31;14.98;;;2.40;;
40541;SDS011;49288;52.194;5.676;2024-03-23T12:59:51;20.55;;;3.13;;
40541;SDS011;49288;52.194;5.676;2024-03-23T13:04:54;8.93;;;2.30;;
40541;SDS011;49288;52.194;5.676;2024-03-23T13:09:56;9.80;;;2.25;;
40541;SDS011;49288;52.194;5.676;2024-03-23T13:14:58;13.15;;;2.55;;
40541;SDS011;49288;52.194;5.676;2024-03-23T13:20:00;11.68;;;2.30;;
40541;SDS011;49288;52.194;5.676;2024-03-23T13:25:02;14.30;;;2.60;;
40541;SDS011;49288;52.194;5.676;2024-03-23T13:30:05;12.27;;;2.63;;
40541;SDS011;49288;52.194;5.676;2024-03-23T13:35:07;12.98;;;2.47;;
40541;SDS011;49288;52.194;5.676;2024-03-23T13:40:09;12.88;;;2.78;;
40541;SDS011;49288;52.194;5.676;2024-03-23T13:45:14;10.50;;;2.65;;
40541;SDS011;49288;52.194;5.676;2024-03-23T13:50:16;14.25;;;2.50;;
40541;SDS011;49288;52.194;5.676;2024-03-23T13:55:18;7.35;;;2.15;;
40541;SDS011;49288;52.194;5.676;2024-03-23T14:00:20;2.90;;;0.98;;
40541;SDS011;49288;52.194;5.676;2024-03-23T14:05:22;5.90;;;1.50;;
40541;SDS011;49288;52.194;5.676;2024-03-23T14:10:26;7.75;;;1.70;;
40541;SDS011;49288;52.194;5.676;2024-03-23T14:15:28;9.10;;;1.83;;
40541;SDS011;49288;52.194;5.676;2024-03-23T14:20:33;6.93;;;1.50;;
40541;SDS011;49288;52.194;5.676;2024-03-23T14:25:36;9.60;;;2.17;;
40541;SDS011;49288;52.194;5.676;2024-03-23T14:35:53;12.80;;;2.38;;
40541;SDS011;49288;52.194;5.676;2024-03-23T14:40:59;8.27;;;1.55;;
40541;SDS011;49288;52.194;5.676;2024-03-23T14:51:13;8.73;;;2.20;;
40541;SDS011;49288;52.194;5.676;2024-03-23T14:56:16;9.25;;;2.30;;
40541;SDS011;49288;52.194;5.676;2024-03-23T15:01:19;15.90;;;2.53;;
40541;SDS011;49288;52.194;5.676;2024-03-23T15:06:22;9.82;;;2.50;;
40541;SDS011;49288;52.194;5.676;2024-03-23T15:11:25;14.55;;;2.83;;
40541;SDS011;49288;52.194;5.676;2024-03-23T15:16:27;10.63;;;2.38;;
40541;SDS011;49288;52.194;5.676;2024-03-23T15:21:29;12.75;;;2.67;;
40541;SDS011;49288;52.194;5.676;2024-03-23T15:26:31;4.50;;;1.55;;
40541;SDS011;49288;52.194;5.676;2024-03-23T15:31:33;13.95;;;2.70;;
40541;SDS011;49288;52.194;5.676;2024-03-23T15:36:37;8.77;;;2.10;;
40541;SDS011;49288;52.194;5.676;2024-03-23T15:41:43;12.52;;;2.30;;
40541;SDS011;49288;52.194;5.676;2024-03-23T15:46:45;13.68;;;2.30;;
40541;SDS011;49288;52.194;5.676;2024-03-23T15:51:47;6.43;;;1.55;;
40541;SDS011;49288;52.194;5.676;2024-03-23T15:56:49;12.57;;;2.85;;
40541;SDS011;49288;52.194;5.676;2024-03-23T16:01:51;9.75;;;2.25;;
40541;SDS011;49288;52.194;5.676;2024-03-23T16:06:54;11.48;;;1.98;;
40541;SDS011;49288;52.194;5.676;2024-03-23T16:11:56;8.13;;;2.13;;
40541;SDS011;49288;52.194;5.676;2024-03-23T16:16:58;11.77;;;2.45;;
40541;SDS011;49288;52.194;5.676;2024-03-23T16:22:00;9.32;;;2.45;;
40541;SDS011;49288;52.194;5.676;2024-03-23T16:27:03;8.25;;;2.60;;
40541;SDS011;49288;52.194;5.676;2024-03-23T16:32:05;11.05;;;2.28;;
40541;SDS011;49288;52.194;5.676;2024-03-23T16:37:07;14.10;;;3.17;;
40541;SDS011;49288;52.194;5.676;2024-03-23T16:42:12;7.80;;;2.90;;
40541;SDS011;49288;52.194;5.676;2024-03-23T16:47:14;9.15;;;2.22;;
40541;SDS011;49288;52.194;5.676;2024-03-23T16:52:16;8.27;;;2.15;;
40541;SDS011;49288;52.194;5.676;2024-03-23T16:57:18;7.07;;;2.20;;
40541;SDS011;49288;52.194;5.676;2024-03-23T17:02:20;5.90;;;1.90;;
40541;SDS011;49288;52.194;5.676;2024-03-23T17:07:40;6.82;;;2.35;;
40541;SDS011;49288;52.194;5.676;2024-03-23T17:12:42;8.48;;;2.22;;
40541;SDS011;49288;52.194;5.676;2024-03-23T17:17:44;5.68;;;1.90;;
40541;SDS011;49288;52.194;5.676;2024-03-23T17:22:52;7.00;;;1.80;;
40541;SDS011;49288;52.194;5.676;2024-03-23T17:28:13;9.65;;;2.17;;
40541;SDS011;49288;52.194;5.676;2024-03-23T17:33:16;12.82;;;3.15;;
40541;SDS011;49288;52.194;5.676;2024-03-23T17:38:19;18.08;;;2.97;;
40541;SDS011;49288;52.194;5.676;2024-03-23T17:43:22;5.07;;;2.20;;
40541;SDS011;49288;52.194;5.676;2024-03-23T17:48:23;7.10;;;2.20;;
40541;SDS011;49288;52.194;5.676;2024-03-23T17:53:25;8.82;;;1.80;;
40541;SDS011;49288;52.194;5.676;2024-03-23T17:58:28;6.90;;;2.20;;
40541;SDS011;49288;52.194;5.676;2024-03-23T18:03:30;12.32;;;2.42;;
40541;SDS011;49288;52.194;5.676;2024-03-23T18:08:31;3.95;;;1.95;;
40541;SDS011;49288;52.194;5.676;2024-03-23T18:13:33;5.55;;;2.28;;
40541;SDS011;49288;52.194;5.676;2024-03-23T18:18:35;9.27;;;2.45;;
40541;SDS011;49288;52.194;5.676;2024-03-23T18:23:37;6.07;;;2.35;;
40541;SDS011;49288;52.194;5.676;2024-03-23T18:28:39;5.05;;;2.35;;
40541;SDS011;49288;52.194;5.676;2024-03-23T18:33:41;7.95;;;2.70;;
40541;SDS011;49288;52.194;5.676;2024-03-23T18:38:44;7.95;;;2.58;;
40541;SDS011;49288;52.194;5.676;2024-03-23T18:43:46;7.85;;;2.88;;
40541;SDS011;49288;52.194;5.676;2024-03-23T18:48:51;5.05;;;2.72;;
40541;SDS011;49288;52.194;5.676;2024-03-23T18:53:56;6.90;;;3.08;;
40541;SDS011;49288;52.194;5.676;2024-03-23T18:59:01;6.28;;;3.28;;
40541;SDS011;49288;52.194;5.676;2024-03-23T19:04:03;9.05;;;3.30;;
40541;SDS011;49288;52.194;5.676;2024-03-23T19:09:05;10.65;;;3.50;;
40541;SDS011;49288;52.194;5.676;2024-03-23T19:14:09;8.73;;;3.63;;
40541;SDS011;49288;52.194;5.676;2024-03-23T19:19:12;9.18;;;4.07;;
40541;SDS011;49288;52.194;5.676;2024-03-23T19:24:14;12.75;;;4.05;;
40541;SDS011;49288;52.194;5.676;2024-03-23T19:29:17;12.50;;;4.10;;
40541;SDS011;49288;52.194;5.676;2024-03-23T19:34:19;9.77;;;4.43;;
40541;SDS011;49288;52.194;5.676;2024-03-23T19:39:20;13.43;;;4.30;;
40541;SDS011;49288;52.194;5.676;2024-03-23T19:44:22;8.68;;;4.10;;
40541;SDS011;49288;52.194;5.676;2024-03-23T19:49:25;9.65;;;4.07;;
40541;SDS011;49288;52.194;5.676;2024-03-23T19:54:27;13.00;;;4.50;;
40541;SDS011;49288;52.194;5.676;2024-03-23T19:59:31;8.85;;;4.63;;
40541;SDS011;49288;52.194;5.676;2024-03-23T20:04:33;13.43;;;4.60;;
40541;SDS011;49288;52.194;5.676;2024-03-23T20:09:36;12.77;;;4.88;;
40541;SDS011;49288;52.194;5.676;2024-03-23T20:14:37;11.48;;;4.32;;
40541;SDS011;49288;52.194;5.676;2024-03-23T20:19:40;9.65;;;4.45;;
40541;SDS011;49288;52.194;5.676;2024-03-23T20:24:42;10.10;;;4.30;;
40541;SDS011;49288;52.194;5.676;2024-03-23T20:29:45;15.52;;;4.88;;
40541;SDS011;49288;52.194;5.676;2024-03-23T20:34:49;8.98;;;3.97;;
40541;SDS011;49288;52.194;5.676;2024-03-23T20:39:51;22.08;;;5.57;;
40541;SDS011;49288;52.194;5.676;2024-03-23T20:44:53;13.63;;;4.07;;
40541;SDS011;49288;52.194;5.676;2024-03-23T20:49:55;18.27;;;4.10;;
40541;SDS011;49288;52.194;5.676;2024-03-23T20:54:57;9.85;;;3.25;;
40541;SDS011;49288;52.194;5.676;2024-03-23T21:00:00;11.60;;;3.63;;
40541;SDS011;49288;52.194;5.676;2024-03-23T21:05:02;8.30;;;3.63;;
40541;SDS011;49288;52.194;5.676;2024-03-23T21:10:06;11.40;;;4.13;;
40541;SDS011;49288;52.194;5.676;2024-03-23T21:15:08;7.97;;;3.25;;
40541;SDS011;49288;52.194;5.676;2024-03-23T21:20:10;14.70;;;3.80;;
40541;SDS011;49288;52.194;5.676;2024-03-23T21:25:12;10.38;;;3.60;;
40541;SDS011;49288;52.194;5.676;2024-03-23T21:30:14;10.93;;;3.47;;
40541;SDS011;49288;52.194;5.676;2024-03-23T21:35:16;13.77;;;3.85;;
40541;SDS011;49288;52.194;5.676;2024-03-23T21:40:20;10.02;;;3.45;;
40541;SDS011;49288;52.194;5.676;2024-03-23T21:45:23;7.60;;;3.28;;
40541;SDS011;49288;52.194;5.676;2024-03-23T21:50:26;6.45;;;3.10;;
40541;SDS011;49288;52.194;5.676;2024-03-23T21:55:28;7.47;;;2.67;;
40541;SDS011;49288;52.194;5.676;2024-03-23T22:00:30;14.27;;;3.28;;
40541;SDS011;49288;52.194;5.676;2024-03-23T22:05:31;12.52;;;3.60;;
40541;SDS011;49288;52.194;5.676;2024-03-23T22:10:52;10.15;;;3.70;;
40541;SDS011;49288;52.194;5.676;2024-03-23T22:15:57;10.68;;;3.67;;
40541;SDS011;49288;52.194;5.676;2024-03-23T22:21:00;6.75;;;3.42;;
40541;SDS011;49288;52.194;5.676;2024-03-23T22:26:05;10.93;;;3.67;;
40541;SDS011;49288;52.194;5.676;2024-03-23T22:31:07;7.10;;;3.05;;
40541;SDS011;49288;52.194;5.676;2024-03-23T22:36:10;7.95;;;3.65;;
40541;SDS011;49288;52.194;5.676;2024-03-23T22:41:12;4.38;;;2.03;;
40541;SDS011;49288;52.194;5.676;2024-03-23T22:46:14;10.38;;;4.60;;
40541;SDS011;49288;52.194;5.676;2024-03-23T22:51:16;16.48;;;4.68;;
40541;SDS011;49288;52.194;5.676;2024-03-23T22:56:24;8.15;;;3.25;;
40541;SDS011;49288;52.194;5.676;2024-03-23T23:01:27;15.25;;;5.35;;
40541;SDS011;49288;52.194;5.676;2024-03-23T23:06:29;10.85;;;3.97;;
40541;SDS011;49288;52.194;5.676;2024-03-23T23:11:33;21.23;;;4.72;;
40541;SDS011;49288;52.194;5.676;2024-03-23T23:16:35;4.43;;;2.80;;
40541;SDS011;49288;52.194;5.676;2024-03-23T23:21:37;13.95;;;3.90;;
40541;SDS011;49288;52.194;5.676;2024-03-23T23:26:40;6.63;;;3.13;;
40541;SDS011;49288;52.194;5.676;2024-03-23T23:31:42;8.38;;;4.25;;
40541;SDS011;49288;52.194;5.676;2024-03-23T23:36:48;7.68;;;3.30;;
40541;SDS011;49288;52.194;5.676;2024-03-23T23:41:51;13.27;;;4.53;;
40541;SDS011;49288;52.194;5.676;2024-03-23T23:46:53;11.95;;;4.68;;
40541;SDS011;49288;52.194;5.676;2024-03-23T23:51:55;17.73;;;5.80;;
40541;SDS011;49288;52.194;5.676;2024-03-23T23:56:58;13.30;;;6.07;;
